Time;durP1;ratioP1;P1;durP2;ratioP2;P2;SDS_P1;SDS_P2;PMS_P1;PMS_P2;Temp;Humidity;BMP_temperature;BMP_pressure;BME280_temperature;BME280_humidity;BME280_pressure;Samples;Min_cycle;Max_cycle;Signal;HPM_P1;HPM_P2
2023/07/08 00:01:16;;;;;;;9.88;3.70;;;;;;;23.78;60.55;100857.41;7356757;19;20015;-62
2023/07/08 00:03:43;;;;;;;9.10;3.60;;;;;;;23.76;61.29;100859.53;7358906;19;20699;-61
2023/07/08 00:06:18;;;;;;;13.90;5.05;;;;;;;23.73;60.91;100853.78;7359566;19;20026;-61
2023/07/08 00:08:45;;;;;;;11.65;3.63;;;;;;;23.71;60.76;100854.06;7358288;19;20628;-62
2023/07/08 00:11:13;;;;;;;11.65;4.38;;;;;;;23.69;61.28;100852.66;7361999;19;20370;-62
2023/07/08 00:13:40;;;;;;;17.55;4.40;;;;;;;23.65;61.06;100859.56;7359178;19;20015;-62
2023/07/08 00:16:12;;;;;;;8.77;4.38;;;;;;;23.62;61.65;100855.47;7358838;19;20029;-63
2023/07/08 00:18:40;;;;;;;12.00;4.28;;;;;;;23.60;61.68;100854.09;7359387;19;20019;-62
2023/07/08 00:21:10;;;;;;;11.73;3.50;;;;;;;23.56;61.21;100853.75;7355300;19;20018;-61
2023/07/08 00:23:37;;;;;;;11.07;3.22;;;;;;;23.56;61.36;100856.44;7359601;19;20174;-62
2023/07/08 00:26:11;;;;;;;5.90;3.13;;;;;;;23.54;62.17;100863.09;7361562;19;20029;-62
2023/07/08 00:28:38;;;;;;;10.82;3.92;;;;;;;23.51;62.07;100856.34;7356209;19;20039;-62
2023/07/08 00:31:09;;;;;;;9.63;4.40;;;;;;;23.50;62.67;100854.69;7356935;19;20704;-62
2023/07/08 00:33:37;;;;;;;11.00;4.22;;;;;;;23.49;62.27;100844.19;7359815;19;20018;-63
2023/07/08 00:36:11;;;;;;;9.13;3.65;;;;;;;23.47;62.32;100846.31;7358252;19;20579;-62
2023/07/08 00:38:38;;;;;;;8.50;3.47;;;;;;;23.45;62.91;100838.47;7354918;19;20018;-61
2023/07/08 00:41:06;;;;;;;12.02;3.10;;;;;;;23.43;62.90;100833.28;7356883;19;20033;-62
2023/07/08 00:43:38;;;;;;;6.45;3.08;;;;;;;23.39;63.02;100837.50;7361056;19;20011;-61
2023/07/08 00:46:24;;;;;;;10.52;3.03;;;;;;;23.41;63.61;100848.03;7357983;19;20026;-62
2023/07/08 00:48:55;;;;;;;10.40;3.60;;;;;;;23.37;63.30;100831.53;7355741;19;20052;-61
2023/07/08 00:51:22;;;;;;;10.13;3.00;;;;;;;23.36;63.39;100829.94;7361648;19;20022;-61
2023/07/08 00:53:49;;;;;;;6.53;2.90;;;;;;;23.32;63.41;100830.63;7357757;19;20053;-61
2023/07/08 00:56:23;;;;;;;12.13;3.88;;;;;;;23.28;64.33;100818.72;7361133;19;20721;-64
2023/07/08 00:59:02;;;;;;;10.95;3.30;;;;;;;23.24;63.91;100823.75;7357912;19;20942;-62
2023/07/08 01:01:34;;;;;;;8.10;3.30;;;;;;;23.21;63.84;100818.06;7355265;19;20018;-63
2023/07/08 01:04:09;;;;;;;10.43;3.20;;;;;;;23.19;64.13;100812.91;7356546;19;21621;-62
2023/07/08 01:06:41;;;;;;;10.70;3.50;;;;;;;23.18;64.63;100818.50;7357991;19;20019;-63
2023/07/08 01:09:12;;;;;;;10.52;4.55;;;;;;;23.15;64.71;100821.69;7357521;19;20014;-62
2023/07/08 01:11:40;;;;;;;10.40;3.78;;;;;;;23.14;64.78;100814.66;7358134;19;20042;-61
2023/07/08 01:14:11;;;;;;;7.20;3.35;;;;;;;23.12;65.16;100804.16;7357694;19;20815;-61
2023/07/08 01:16:39;;;;;;;9.57;2.92;;;;;;;23.11;64.91;100801.72;7359474;19;20042;-61
2023/07/08 01:19:14;;;;;;;10.38;3.25;;;;;;;23.10;65.38;100800.09;7355748;19;20018;-62
2023/07/08 01:21:53;;;;;;;10.30;3.03;;;;;;;23.09;65.07;100803.81;7355709;19;20033;-61
2023/07/08 01:24:20;;;;;;;9.70;3.38;;;;;;;23.07;65.18;100800.53;7357767;19;21781;-62
2023/07/08 01:26:47;;;;;;;8.93;3.53;;;;;;;23.06;65.55;100799.72;7367171;19;20010;-62
2023/07/08 01:29:14;;;;;;;6.97;3.22;;;;;;;23.07;65.61;100795.16;7364052;19;20014;-62
2023/07/08 01:31:48;;;;;;;9.02;3.05;;;;;;;23.04;65.11;100793.78;7362195;19;20018;-60
2023/07/08 01:34:16;;;;;;;10.88;3.67;;;;;;;23.06;65.46;100788.97;7365315;19;20042;-61
2023/07/08 01:36:49;;;;;;;10.30;3.78;;;;;;;23.03;65.40;100789.47;7364492;19;20444;-62
2023/07/08 01:39:19;;;;;;;10.02;3.58;;;;;;;23.01;65.62;100789.69;7360555;19;20027;-61
2023/07/08 01:41:47;;;;;;;7.57;3.15;;;;;;;23.01;65.90;100791.56;7368729;19;20059;-60
2023/07/08 01:44:34;;;;;;;8.90;3.70;;;;;;;23.00;65.57;100787.25;7360873;19;20011;-61
2023/07/08 01:47:12;;;;;;;10.45;2.80;;;;;;;22.95;65.75;100796.03;7365149;19;20018;-62
2023/07/08 01:49:41;;;;;;;7.32;3.22;;;;;;;22.94;66.19;100794.38;7359984;19;20098;-61
2023/07/08 01:52:10;;;;;;;9.07;3.17;;;;;;;22.92;66.53;100793.78;7362167;19;20650;-61
2023/07/08 01:54:37;;;;;;;8.95;3.88;;;;;;;22.91;66.20;100799.38;7363142;19;20019;-61
2023/07/08 01:57:05;;;;;;;11.38;3.65;;;;;;;22.87;65.83;100785.63;7365610;19;20018;-61
2023/07/08 01:59:32;;;;;;;14.70;3.95;;;;;;;22.84;66.56;100775.38;7364683;19;20126;-61
2023/07/08 02:02:01;;;;;;;10.05;3.25;;;;;;;22.84;66.47;100774.56;7358319;19;20022;-61
2023/07/08 02:04:30;;;;;;;8.13;3.20;;;;;;;22.86;66.24;100780.47;7362430;19;20541;-61
2023/07/08 02:07:00;;;;;;;9.60;3.95;;;;;;;22.82;66.28;100774.78;7366447;19;20010;-62
2023/07/08 02:09:28;;;;;;;9.88;3.47;;;;;;;22.81;66.19;100769.63;7355564;19;20090;-62
2023/07/08 02:11:55;;;;;;;6.70;3.65;;;;;;;22.79;66.60;100763.69;7364061;19;20182;-63
2023/07/08 02:14:22;;;;;;;8.75;3.70;;;;;;;22.79;66.67;100771.75;7365510;19;20018;-63
2023/07/08 02:16:49;;;;;;;9.40;3.15;;;;;;;22.77;67.20;100763.94;7362844;19;20559;-62
2023/07/08 02:19:17;;;;;;;6.00;3.22;;;;;;;22.78;66.56;100762.06;7362348;19;20494;-62
2023/07/08 02:21:44;;;;;;;10.07;3.30;;;;;;;22.78;66.13;100767.44;7363607;19;20014;-62
2023/07/08 02:24:11;;;;;;;7.85;3.05;;;;;;;22.79;66.44;100764.53;7359946;19;20485;-61
2023/07/08 02:26:38;;;;;;;10.43;3.58;;;;;;;22.80;66.80;100765.34;7363320;19;20018;-61
2023/07/08 02:29:06;;;;;;;8.73;2.92;;;;;;;22.79;66.35;100766.38;7362437;19;20682;-62
2023/07/08 02:31:33;;;;;;;7.38;3.20;;;;;;;22.79;66.76;100764.53;7363602;19;20121;-61
2023/07/08 02:34:02;;;;;;;6.68;3.17;;;;;;;22.79;66.50;100771.75;7357878;19;21708;-61
2023/07/08 02:36:29;;;;;;;6.45;3.33;;;;;;;22.79;66.31;100771.75;7361470;19;20039;-61
2023/07/08 02:38:56;;;;;;;6.85;2.97;;;;;;;22.79;66.24;100769.06;7359327;19;20026;-62
2023/07/08 02:41:23;;;;;;;8.95;3.45;;;;;;;22.80;65.79;100768.03;7363516;19;20487;-61
2023/07/08 02:43:50;;;;;;;8.63;3.20;;;;;;;22.79;66.95;100764.53;7364087;19;20019;-61
2023/07/08 02:46:17;;;;;;;10.77;4.30;;;;;;;22.80;66.59;100771.53;7359650;19;20014;-62
2023/07/08 02:48:45;;;;;;;8.60;3.80;;;;;;;22.79;66.04;100771.75;7358033;19;20015;-62
2023/07/08 02:51:12;;;;;;;7.72;3.10;;;;;;;22.77;66.24;100766.59;7363148;19;20018;-61
2023/07/08 02:53:39;;;;;;;7.70;3.17;;;;;;;22.76;66.13;100761.47;7358628;19;20399;-61
2023/07/08 02:56:06;;;;;;;7.15;3.33;;;;;;;22.75;66.23;100765.22;7364530;19;20034;-62
2023/07/08 02:58:35;;;;;;;6.38;2.97;;;;;;;22.75;66.41;100773.28;7360635;19;20554;-62
2023/07/08 03:01:02;;;;;;;6.70;3.00;;;;;;;22.74;65.68;100780.50;7361955;19;20031;-62
2023/07/08 03:03:30;;;;;;;6.82;3.15;;;;;;;22.73;65.85;100783.41;7361604;19;20018;-62
2023/07/08 03:06:02;;;;;;;7.28;3.10;;;;;;;22.73;65.92;100778.06;7364400;19;20471;-61
2023/07/08 03:08:30;;;;;;;11.13;3.30;;;;;;;22.72;66.01;100776.41;7364106;19;20549;-62
2023/07/08 03:11:00;;;;;;;6.35;3.25;;;;;;;22.72;65.75;100781.78;7360103;19;20057;-62
2023/07/08 03:13:29;;;;;;;7.97;3.10;;;;;;;22.72;66.26;100787.97;7360526;19;20924;-62
2023/07/08 03:15:58;;;;;;;10.00;3.63;;;;;;;22.73;66.15;100788.78;7362960;19;20022;-61
2023/07/08 03:18:26;;;;;;;7.63;3.10;;;;;;;22.73;66.21;100786.09;7360287;19;20015;-61
2023/07/08 03:20:56;;;;;;;8.15;3.47;;;;;;;22.72;66.38;100789.81;7360470;19;20686;-63
2023/07/08 03:23:25;;;;;;;7.85;3.13;;;;;;;22.69;65.88;100790.28;7360211;19;20021;-62
2023/07/08 03:25:52;;;;;;;10.07;3.50;;;;;;;22.73;65.62;100791.47;7357948;19;20027;-61
2023/07/08 03:28:20;;;;;;;7.90;3.13;;;;;;;22.68;65.50;100781.41;7361229;19;20414;-62
2023/07/08 03:30:52;;;;;;;8.80;2.72;;;;;;;22.69;65.98;100791.09;7358091;19;20023;-62
2023/07/08 03:33:20;;;;;;;9.10;3.05;;;;;;;22.67;66.08;100790.50;7362365;19;20021;-62
2023/07/08 03:35:48;;;;;;;7.38;3.25;;;;;;;22.65;66.09;100784.56;7363296;19;20022;-62
2023/07/08 03:38:15;;;;;;;7.10;3.40;;;;;;;22.63;66.04;100785.84;7359789;19;20022;-62
2023/07/08 03:40:44;;;;;;;7.70;3.28;;;;;;;22.63;66.29;100789.34;7361044;19;20576;-62
2023/07/08 03:43:11;;;;;;;8.60;3.60;;;;;;;22.62;66.17;100787.69;7359926;19;20018;-62
2023/07/08 03:45:38;;;;;;;7.85;3.20;;;;;;;22.64;66.01;100790.97;7356424;19;20097;-62
2023/07/08 03:48:05;;;;;;;9.57;4.00;;;;;;;22.63;66.28;100793.88;7356997;19;20094;-62
2023/07/08 03:50:33;;;;;;;6.15;3.28;;;;;;;22.60;66.34;100793.28;7359589;19;20093;-61
2023/07/08 03:53:00;;;;;;;7.88;3.05;;;;;;;22.60;67.11;100795.97;7361067;19;20102;-61
2023/07/08 03:55:28;;;;;;;6.78;2.78;;;;;;;22.59;66.35;100786.31;7361616;19;20018;-61
2023/07/08 03:57:57;;;;;;;10.93;3.78;;;;;;;22.59;66.90;100789.00;7362116;19;20039;-61
2023/07/08 04:00:24;;;;;;;5.65;3.22;;;;;;;22.59;66.73;100790.84;7356514;19;20558;-61
2023/07/08 04:02:51;;;;;;;9.20;3.47;;;;;;;22.58;67.14;100800.78;7359757;19;20014;-61
2023/07/08 04:05:21;;;;;;;9.95;4.10;;;;;;;22.58;66.85;100797.25;7362438;19;20146;-61
2023/07/08 04:07:49;;;;;;;7.35;3.10;;;;;;;22.59;67.54;100806.97;7359981;19;20019;-61
2023/07/08 04:10:16;;;;;;;6.78;3.15;;;;;;;22.58;67.55;100806.13;7352873;19;20010;-62
2023/07/08 04:12:43;;;;;;;7.55;3.10;;;;;;;22.58;67.64;100808.00;7363085;19;20039;-62
2023/07/08 04:15:12;;;;;;;8.05;3.30;;;;;;;22.58;67.18;100822.22;7358865;19;20617;-62
2023/07/08 04:17:45;;;;;;;6.63;2.90;;;;;;;22.56;67.06;100810.91;7359608;19;20049;-62
2023/07/08 04:20:18;;;;;;;6.40;3.33;;;;;;;22.56;67.07;100804.72;7363370;19;21293;-62
2023/07/08 04:22:46;;;;;;;4.75;2.60;;;;;;;22.57;67.64;100817.09;7362692;19;20034;-62
2023/07/08 04:25:14;;;;;;;6.75;3.03;;;;;;;22.57;66.88;100811.72;7357160;19;20013;-62
2023/07/08 04:27:41;;;;;;;7.75;2.80;;;;;;;22.59;67.00;100809.63;7355279;19;20026;-60
2023/07/08 04:30:19;;;;;;;6.57;3.15;;;;;;;22.59;67.14;100804.28;7360057;19;20018;-64
2023/07/08 04:32:47;;;;;;;5.60;2.72;;;;;;;22.59;66.76;100802.41;7357833;19;20025;-63
2023/07/08 04:35:15;;;;;;;8.73;2.65;;;;;;;22.60;66.03;100809.38;7359457;19;20370;-66
2023/07/08 04:37:42;;;;;;;7.38;2.55;;;;;;;22.65;66.67;100807.91;7361158;19;20021;-62
2023/07/08 04:40:17;;;;;;;6.50;2.80;;;;;;;22.64;65.70;100808.94;7361743;19;20026;-62
2023/07/08 04:42:47;;;;;;;5.65;2.45;;;;;;;22.65;65.34;100803.34;7362007;19;20022;-61
2023/07/08 04:45:17;;;;;;;6.55;2.65;;;;;;;22.68;66.26;100802.88;7359355;19;20018;-62
2023/07/08 04:47:46;;;;;;;5.75;2.83;;;;;;;22.69;66.20;100803.69;7359300;19;20484;-62
2023/07/08 04:50:14;;;;;;;6.72;2.78;;;;;;;22.72;65.85;100798.69;7357886;19;20566;-62
2023/07/08 04:52:41;;;;;;;7.75;2.92;;;;;;;22.74;66.15;100801.97;7360556;19;20018;-60
2023/07/08 04:55:09;;;;;;;7.93;2.72;;;;;;;22.76;65.94;100801.72;7359601;19;20025;-62
2023/07/08 04:57:36;;;;;;;8.68;2.97;;;;;;;22.76;66.31;100813.28;7359400;19;20018;-61
2023/07/08 05:00:08;;;;;;;5.55;2.25;;;;;;;22.76;66.17;100807.91;7355464;19;20429;-61
2023/07/08 05:02:35;;;;;;;8.75;2.67;;;;;;;22.75;65.50;100806.31;7360184;19;20771;-61
2023/07/08 05:05:02;;;;;;;9.93;2.92;;;;;;;22.78;65.61;100813.06;7358599;19;20098;-61
2023/07/08 05:07:30;;;;;;;5.50;1.95;;;;;;;22.79;65.35;100796.72;7362783;19;20472;-62
2023/07/08 05:09:58;;;;;;;8.18;3.05;;;;;;;22.81;65.69;100808.03;7357543;19;20495;-61
2023/07/08 05:12:26;;;;;;;5.10;2.25;;;;;;;22.84;65.67;100806.75;7360970;19;20030;-61
2023/07/08 05:14:54;;;;;;;5.72;2.42;;;;;;;22.87;66.06;100819.69;7359689;19;20042;-61
2023/07/08 05:17:21;;;;;;;7.07;2.78;;;;;;;22.89;66.71;100821.09;7356669;19;20340;-61
2023/07/08 05:19:50;;;;;;;7.03;2.03;;;;;;;22.92;67.08;100822.50;7358610;19;20015;-62
2023/07/08 05:22:22;;;;;;;7.53;2.65;;;;;;;22.93;66.47;100810.72;7360297;19;20018;-61
2023/07/08 05:24:52;;;;;;;5.25;2.45;;;;;;;22.93;66.83;100822.28;7356269;19;20018;-62
2023/07/08 05:27:19;;;;;;;11.20;2.72;;;;;;;22.94;66.34;100829.28;7356756;19;20037;-62
2023/07/08 05:29:47;;;;;;;6.15;2.42;;;;;;;22.95;66.16;100827.41;7356962;19;20028;-60
2023/07/08 05:32:14;;;;;;;6.20;2.33;;;;;;;22.97;67.02;100833.34;7356025;19;20019;-62
2023/07/08 05:34:42;;;;;;;4.97;2.67;;;;;;;22.98;67.19;100829.63;7358742;19;20018;-62
2023/07/08 05:37:11;;;;;;;5.47;2.15;;;;;;;23.00;66.65;100835.59;7358721;19;20044;-62
2023/07/08 05:39:38;;;;;;;13.23;2.70;;;;;;;23.02;66.88;100836.97;7358816;19;20031;-63
2023/07/08 05:42:05;;;;;;;5.47;2.45;;;;;;;23.02;66.77;100841.50;7358362;19;20011;-61
2023/07/08 05:44:33;;;;;;;12.80;2.20;;;;;;;23.03;67.68;100848.53;7358973;19;20018;-62
2023/07/08 05:47:00;;;;;;;10.52;2.58;;;;;;;23.04;67.38;100836.75;7358017;19;20018;-62
2023/07/08 05:49:28;;;;;;;7.20;2.13;;;;;;;23.05;67.60;100822.28;7357775;19;20050;-62
2023/07/08 05:51:55;;;;;;;6.97;2.35;;;;;;;23.06;66.77;100826.56;7356789;19;20579;-62
2023/07/08 05:54:22;;;;;;;6.97;2.40;;;;;;;23.10;67.27;100837.66;7357101;19;20058;-61
2023/07/08 05:56:51;;;;;;;7.57;2.20;;;;;;;23.10;67.27;100849.22;7357002;19;20093;-61
2023/07/08 05:59:18;;;;;;;6.68;2.58;;;;;;;23.11;67.29;100848.16;7356509;19;20483;-61
2023/07/08 06:01:45;;;;;;;9.10;2.60;;;;;;;23.14;67.73;100847.72;7358952;19;20732;-61
2023/07/08 06:04:12;;;;;;;7.68;2.67;;;;;;;23.17;67.55;100855.28;7356907;19;20029;-63
2023/07/08 06:06:40;;;;;;;7.53;2.38;;;;;;;23.22;68.23;100844.66;7356737;19;20440;-62
2023/07/08 06:09:07;;;;;;;8.73;2.28;;;;;;;23.29;67.70;100839.16;7358043;19;20053;-62
2023/07/08 06:11:34;;;;;;;6.78;2.33;;;;;;;23.36;67.03;100842.56;7361583;19;20018;-62
2023/07/08 06:14:01;;;;;;;6.20;2.50;;;;;;;23.43;66.37;100851.28;7365128;19;20022;-62
2023/07/08 06:16:30;;;;;;;4.97;2.28;;;;;;;23.53;68.03;100851.53;7362759;19;20019;-62
2023/07/08 06:19:07;;;;;;;5.15;2.40;;;;;;;23.62;66.44;100850.09;7362417;19;20014;-61
2023/07/08 06:21:34;;;;;;;5.00;2.65;;;;;;;23.68;66.05;100853.69;7364409;19;20017;-62
2023/07/08 06:24:02;;;;;;;4.40;2.50;;;;;;;23.74;65.69;100850.88;7367913;19;20047;-62
2023/07/08 06:26:29;;;;;;;6.22;1.95;;;;;;;23.80;65.66;100851.81;7362514;19;20027;-61
2023/07/08 06:28:56;;;;;;;6.53;2.17;;;;;;;23.86;66.35;100856.22;7361034;19;20447;-61
2023/07/08 06:31:24;;;;;;;7.15;2.17;;;;;;;24.00;66.06;100854.06;7362459;19;20027;-62
2023/07/08 06:33:51;;;;;;;4.03;1.90;;;;;;;24.16;65.33;100866.72;7363769;19;20346;-62
2023/07/08 06:36:18;;;;;;;6.55;2.85;;;;;;;24.39;64.34;100874.69;7363883;19;20026;-62
2023/07/08 06:38:46;;;;;;;5.47;1.92;;;;;;;24.44;63.22;100882.88;7364109;19;20069;-63
2023/07/08 06:41:13;;;;;;;6.88;1.80;;;;;;;24.43;63.11;100889.28;7364721;19;21803;-62
2023/07/08 06:43:40;;;;;;;6.75;1.80;;;;;;;24.42;63.56;100892.25;7362738;19;20019;-62
2023/07/08 06:46:08;;;;;;;5.55;2.08;;;;;;;24.42;64.05;100895.75;7363767;19;20546;-62
2023/07/08 06:48:35;;;;;;;4.57;1.83;;;;;;;24.44;64.54;100888.25;7359305;19;20014;-61
2023/07/08 06:51:03;;;;;;;4.93;1.50;;;;;;;24.46;64.43;100899.59;7362767;19;20018;-62
2023/07/08 06:53:30;;;;;;;4.70;1.60;;;;;;;24.47;64.11;100897.72;7362958;19;20139;-61
2023/07/08 06:55:57;;;;;;;2.90;1.48;;;;;;;24.49;64.12;100907.16;7365451;19;20014;-63
2023/07/08 06:58:24;;;;;;;4.00;1.67;;;;;;;24.50;64.31;100903.44;7361335;19;20125;-62
2023/07/08 07:00:51;;;;;;;6.45;1.73;;;;;;;24.51;64.74;100918.53;7363187;19;20018;-61
2023/07/08 07:03:19;;;;;;;5.70;2.58;;;;;;;24.49;64.97;100909.84;7362814;19;20049;-62
2023/07/08 07:05:46;;;;;;;3.88;2.10;;;;;;;24.50;64.95;100916.06;7362259;19;20134;-63
2023/07/08 07:08:13;;;;;;;4.35;2.00;;;;;;;24.49;64.65;100907.16;7360677;19;20021;-62
2023/07/08 07:10:42;;;;;;;5.80;1.75;;;;;;;24.53;64.71;100923.66;7360340;19;20059;-61
2023/07/08 07:13:09;;;;;;;5.85;1.70;;;;;;;24.56;65.09;100923.16;7361967;19;20018;-62
2023/07/08 07:15:37;;;;;;;10.32;2.50;;;;;;;24.58;65.04;100926.44;7360668;19;20026;-62
2023/07/08 07:18:05;;;;;;;3.58;1.67;;;;;;;24.58;64.96;100918.38;7362241;19;21086;-62
2023/07/08 07:20:33;;;;;;;8.65;1.85;;;;;;;24.61;65.12;100920.56;7362370;19;20042;-62
2023/07/08 07:23:00;;;;;;;8.45;2.35;;;;;;;24.62;65.10;100916.81;7361290;19;20634;-61
2023/07/08 07:25:28;;;;;;;5.10;1.80;;;;;;;24.65;65.76;100924.41;7358812;19;20044;-61
2023/07/08 07:27:55;;;;;;;5.80;2.33;;;;;;;24.67;65.89;100925.00;7358863;19;20026;-61
2023/07/08 07:30:22;;;;;;;9.43;2.25;;;;;;;24.70;66.01;100917.22;7359902;19;20051;-62
2023/07/08 07:32:49;;;;;;;4.72;2.38;;;;;;;24.69;66.01;100907.50;7362555;19;20026;-62
2023/07/08 07:35:17;;;;;;;7.47;2.03;;;;;;;24.67;65.46;100915.03;7359656;19;20028;-61
2023/07/08 07:37:44;;;;;;;4.78;1.63;;;;;;;24.65;65.96;100913.63;7359561;19;20157;-62
2023/07/08 07:40:14;;;;;;;8.82;2.25;;;;;;;24.65;66.00;100916.31;7360072;19;20379;-62
2023/07/08 07:42:43;;;;;;;3.78;2.03;;;;;;;24.63;65.86;100921.97;7364309;19;20015;-61
2023/07/08 07:45:12;;;;;;;7.03;1.90;;;;;;;24.61;66.13;100923.25;7361414;19;20074;-63
2023/07/08 07:47:40;;;;;;;4.38;1.63;;;;;;;24.61;66.86;100926.78;7361615;19;20050;-61
2023/07/08 07:50:09;;;;;;;6.93;2.28;;;;;;;24.60;67.22;100929.69;7358278;19;20027;-62
2023/07/08 07:52:36;;;;;;;5.57;2.30;;;;;;;24.56;66.72;100918.59;7363798;19;20026;-62
2023/07/08 07:55:04;;;;;;;8.13;2.25;;;;;;;24.55;67.00;100918.84;7360051;19;20022;-62
2023/07/08 07:57:32;;;;;;;5.68;2.10;;;;;;;24.52;67.09;100932.78;7364365;19;20027;-63
2023/07/08 07:59:59;;;;;;;8.43;2.28;;;;;;;24.52;66.77;100935.47;7358061;19;20038;-62
2023/07/08 08:02:26;;;;;;;7.97;2.55;;;;;;;24.48;67.19;100937.03;7361677;19;20042;-62
2023/07/08 08:04:53;;;;;;;6.45;2.15;;;;;;;24.48;67.99;100942.41;7357206;19;20321;-62
2023/07/08 08:07:21;;;;;;;4.95;2.40;;;;;;;24.46;68.02;100931.88;7360425;19;20028;-61
2023/07/08 08:09:48;;;;;;;9.10;2.30;;;;;;;24.47;68.76;100952.38;7357135;19;20022;-62
2023/07/08 08:12:15;;;;;;;5.00;1.90;;;;;;;24.48;68.05;100959.34;7361762;19;20034;-62
2023/07/08 08:14:43;;;;;;;6.15;2.00;;;;;;;24.48;67.99;100970.13;7360749;19;20014;-61
2023/07/08 08:17:10;;;;;;;5.88;1.80;;;;;;;24.50;68.25;100991.41;7358962;19;20202;-62
2023/07/08 08:19:37;;;;;;;7.45;2.30;;;;;;;24.49;67.41;100995.97;7357708;19;20027;-62
2023/07/08 08:22:04;;;;;;;7.53;1.95;;;;;;;24.50;68.41;100994.09;7360617;19;20126;-61
2023/07/08 08:24:32;;;;;;;6.22;1.83;;;;;;;24.50;68.29;101007.56;7351457;19;20534;-61
2023/07/08 08:27:00;;;;;;;6.40;2.40;;;;;;;24.46;67.78;101009.09;7362669;19;20035;-62
2023/07/08 08:29:27;;;;;;;6.55;2.13;;;;;;;24.43;68.32;101015.75;7354654;19;20018;-61
2023/07/08 08:31:55;;;;;;;11.15;2.85;;;;;;;24.42;70.00;101014.16;7359305;19;20047;-62
2023/07/08 08:34:22;;;;;;;6.63;2.40;;;;;;;24.41;71.12;101017.06;7359922;19;20145;-61
2023/07/08 08:36:49;;;;;;;6.35;2.42;;;;;;;24.37;72.78;101024.81;7363014;19;20026;-62
2023/07/08 08:39:16;;;;;;;9.13;2.75;;;;;;;24.33;72.54;101020.16;7359527;19;20669;-62
2023/07/08 08:41:44;;;;;;;8.15;2.65;;;;;;;24.29;73.51;101025.19;7363596;19;20479;-62
2023/07/08 08:44:19;;;;;;;6.35;2.63;;;;;;;24.24;74.09;101030.44;7361655;19;20010;-61
2023/07/08 08:47:05;;;;;;;6.97;2.90;;;;;;;24.22;75.06;101027.19;7354267;19;20022;-61
2023/07/08 08:49:47;;;;;;;6.63;2.92;;;;;;;24.20;76.58;101030.13;7359715;19;20037;-63
2023/07/08 08:52:15;;;;;;;12.02;3.40;;;;;;;24.20;78.01;101040.06;7358144;19;20010;-61
2023/07/08 08:54:43;;;;;;;5.40;2.75;;;;;;;24.20;77.64;101034.69;7360465;19;20011;-62
2023/07/08 08:57:28;;;;;;;9.93;2.92;;;;;;;24.23;78.25;101035.00;7361544;19;20023;-61
2023/07/08 08:59:57;;;;;;;12.25;3.28;;;;;;;24.27;78.12;101038.06;7359887;19;20019;-61
2023/07/08 09:02:37;;;;;;;6.03;2.92;;;;;;;24.32;77.83;101040.88;7357141;19;20026;-62
2023/07/08 09:05:08;;;;;;;8.48;3.35;;;;;;;24.34;78.29;101043.28;7340871;19;20482;-62
2023/07/08 09:07:56;;;;;;;7.75;3.15;;;;;;;24.33;78.43;101039.78;7356457;19;20022;-61
2023/07/08 09:10:34;;;;;;;8.73;2.67;;;;;;;24.35;77.54;101047.63;7357647;19;20014;-62
2023/07/08 09:13:03;;;;;;;8.52;3.33;;;;;;;24.40;77.95;101047.72;7352886;19;20834;-61
2023/07/08 09:15:30;;;;;;;10.95;3.53;;;;;;;24.44;77.97;101035.41;7357096;19;20011;-62
2023/07/08 09:18:10;;;;;;;9.07;3.60;;;;;;;24.51;77.19;101033.41;7356397;19;20043;-60
2023/07/08 09:20:37;;;;;;;9.25;3.40;;;;;;;24.61;77.36;101030.94;7360668;19;20598;-62
2023/07/08 09:23:11;;;;;;;10.45;3.70;;;;;;;24.66;75.91;101039.09;7358847;19;20022;-62
2023/07/08 09:25:46;;;;;;;7.03;3.00;;;;;;;24.69;74.98;101034.03;7359462;19;20014;-62
2023/07/08 09:28:14;;;;;;;5.95;2.72;;;;;;;24.76;74.35;101030.38;7359809;19;20074;-61
2023/07/08 09:30:47;;;;;;;6.85;2.60;;;;;;;24.81;74.16;101039.38;7341050;19;20518;-64
2023/07/08 09:33:14;;;;;;;;;;;;;;;24.84;73.46;101038.09;7356863;19;20018;-62
2023/07/08 09:35:46;;;;;;;5.50;2.80;;;;;;;24.82;72.63;101041.03;7356754;19;20442;-62
2023/07/08 09:38:20;;;;;;;6.82;2.45;;;;;;;24.85;70.75;101050.47;7355970;19;20015;-62
2023/07/08 09:40:53;;;;;;;5.07;2.17;;;;;;;24.89;70.07;101051.69;7358812;19;20015;-62
2023/07/08 09:43:36;;;;;;;;;;;;;;;24.92;69.72;101061.97;7357972;19;20011;-61
2023/07/08 09:46:03;;;;;;;7.18;1.77;;;;;;;24.92;69.39;101059.28;7358416;19;19915;-62
2023/07/08 09:48:36;;;;;;;9.65;2.70;;;;;;;24.93;68.49;101058.22;7361589;19;20442;-62
2023/07/08 09:51:04;;;;;;;6.25;2.72;;;;;;;24.96;67.93;101063.09;7363938;19;20014;-62
2023/07/08 09:53:33;;;;;;;4.15;2.10;;;;;;;24.98;67.71;101069.91;7362601;19;20049;-62
2023/07/08 09:56:03;;;;;;;9.93;2.83;;;;;;;25.01;67.69;101074.78;7364994;19;20039;-62
2023/07/08 09:58:37;;;;;;;20.45;4.20;;;;;;;25.04;68.99;101076.19;7360999;19;20150;-61
2023/07/08 10:01:21;;;;;;;7.93;3.05;;;;;;;25.06;68.41;101080.28;7363799;19;20026;-62
2023/07/08 10:03:48;;;;;;;7.78;2.85;;;;;;;25.10;68.74;101081.41;7360961;19;20018;-61
2023/07/08 10:06:21;;;;;;;6.20;2.65;;;;;;;25.13;67.81;101078.25;7366795;19;20102;-62
2023/07/08 10:08:49;;;;;;;10.13;2.40;;;;;;;25.19;68.30;101083.72;7365609;19;20550;-62
2023/07/08 10:11:17;;;;;;;7.20;1.90;;;;;;;25.22;66.12;101086.75;7364824;19;20113;-62
2023/07/08 10:13:49;;;;;;;5.57;1.70;;;;;;;25.25;64.39;101083.56;7361872;19;20094;-62
2023/07/08 10:16:37;;;;;;;3.97;1.60;;;;;;;25.28;63.41;101088.47;7363609;19;20015;-62
2023/07/08 10:19:17;;;;;;;4.65;1.05;;;;;;;25.34;61.74;101094.78;7364821;19;20018;-62
2023/07/08 10:21:54;;;;;;;2.97;0.90;;;;;;;25.37;59.95;101097.78;7365137;19;20021;-61
2023/07/08 10:24:41;;;;;;;3.40;0.95;;;;;;;25.41;59.42;101106.19;7361474;19;20039;-62
2023/07/08 10:27:25;;;;;;;4.13;1.17;;;;;;;25.42;58.40;101115.91;7363029;19;20037;-61
2023/07/08 10:30:06;;;;;;;4.90;1.88;;;;;;;25.43;59.40;101129.16;7364222;19;20577;-61
2023/07/08 10:32:55;;;;;;;4.82;1.10;;;;;;;25.41;59.41;101127.75;7360776;19;20073;-62
2023/07/08 10:35:30;;;;;;;5.03;1.10;;;;;;;25.39;58.64;101128.03;7362607;19;20376;-62
2023/07/08 10:38:16;;;;;;;3.40;1.10;;;;;;;25.37;59.07;101137.38;7365199;19;20034;-62
2023/07/08 10:40:54;;;;;;;3.00;0.85;;;;;;;25.32;58.32;101153.47;7362500;19;20010;-64
2023/07/08 10:43:32;;;;;;;7.40;1.15;;;;;;;25.30;58.85;101161.78;7364249;19;20011;-62
2023/07/08 10:46:14;;;;;;;3.53;1.35;;;;;;;25.26;58.91;101168.72;7362281;19;20018;-61
2023/07/08 10:48:52;;;;;;;6.50;1.13;;;;;;;25.23;58.93;101174.59;7357993;19;20021;-60
2023/07/08 10:51:32;;;;;;;4.18;1.20;;;;;;;25.18;58.42;101188.00;7361557;19;20039;-62
2023/07/08 10:54:19;;;;;;;3.40;0.80;;;;;;;25.13;58.53;101190.59;7362023;19;20047;-62
2023/07/08 10:57:00;;;;;;;3.70;1.20;;;;;;;25.10;59.86;101188.34;7361714;19;20022;-62
2023/07/08 10:59:37;;;;;;;3.90;0.82;;;;;;;25.05;59.62;101190.94;7363142;19;20077;-62
2023/07/08 11:02:40;;;;;;;5.72;0.90;;;;;;;25.00;60.65;101193.53;7341063;19;20021;-61
2023/07/08 11:05:20;;;;;;;5.43;1.20;;;;;;;24.94;64.69;101205.28;7358007;19;20022;-61
2023/07/08 11:08:01;;;;;;;4.03;1.20;;;;;;;24.86;67.71;101208.31;7361957;19;20557;-61
2023/07/08 11:10:36;;;;;;;3.70;1.10;;;;;;;24.74;69.21;101205.63;7362687;19;20101;-61
2023/07/08 11:13:17;;;;;;;5.07;1.30;;;;;;;24.65;70.56;101190.91;7364189;19;20006;-62
2023/07/08 11:15:52;;;;;;;3.17;1.02;;;;;;;24.58;71.43;101174.06;7360869;19;20795;-61
2023/07/08 11:18:25;;;;;;;5.60;2.05;;;;;;;24.53;72.16;101165.88;7361261;19;20471;-63
2023/07/08 11:20:56;;;;;;;4.78;1.48;;;;;;;24.50;73.21;101156.41;7361814;19;20015;-61
2023/07/08 11:23:34;;;;;;;6.00;1.58;;;;;;;24.47;72.63;101146.13;7361003;19;20018;-63
2023/07/08 11:26:14;;;;;;;7.43;1.20;;;;;;;24.45;71.95;101137.44;7360568;19;20010;-62
2023/07/08 11:28:41;;;;;;;6.00;1.60;;;;;;;24.46;71.56;101127.50;7362174;19;20018;-63
2023/07/08 11:31:10;;;;;;;4.00;1.20;;;;;;;24.48;71.42;101130.78;7356761;19;20108;-61
2023/07/08 11:33:38;;;;;;;4.38;1.25;;;;;;;24.49;67.90;101135.91;7357295;19;20022;-61
2023/07/08 11:36:08;;;;;;;5.07;1.10;;;;;;;24.52;67.01;101142.72;7361475;19;20011;-61
2023/07/08 11:38:35;;;;;;;3.35;1.13;;;;;;;24.51;67.85;101143.75;7356546;19;20073;-62